Trumbauersville, Pennsylvania
Current Conditions -  °F | °C
As of 6:35 PM on Wednesday 22 Oct 2014 (Local Time) from KUKT Reporting Station
Overcast Overcast  
Wind Chill: 54°   Ceiling: 2500
Heat Index: 54°   Visibility: 10mi
Dew Point: 48°   Wind: 13mph
Humidity: 82%   Direction: 360°N
Pressure: 29.88"   Gusts: 18mph
Location:  40.41°N, 75.38°W
Report Text: KUKT 222235Z AUTO 36011G16KT 10SM OVC025 12/09 A2988 RMK AO1
Loading
Personal Weather Stations






























Interactive Weather Map
Tropical Storm Tracking
New forecast layout! Learn more

10-Day Weather Forecast

Advertisements
Track Severe Weather on mobile